Matlacha, Florida
Current Conditions -  °F | °C
As of 12:53 PM on Saturday 25 Oct 2014 (Local Time) from KFMY Reporting Station
Clear Clear  
Wind Chill: 79°   Ceiling: Unl
Heat Index: 80°   Visibility: 10mi
Dew Point: 58°   Wind: 8mph
Humidity: 48%   Direction: 20°NNE
Pressure: 29.96"   Gusts: NA
Location:  26.6904°N, 82.0304°W
Report Text: KFMY 251653Z 02007KT 10SM CLR 26/14 A2996 RMK AO2 SLP146 T02610144
Loading
Personal Weather Stations






























Interactive Weather Map
Tropical Storm Tracking
New forecast layout! Learn more

10-Day Weather Forecast

Advertisements
Track Severe Weather on mobile